<?xml version="1.0" encoding="UTF-8" standalone="no" ?>
<gpx xmlns="http://www.topografix.com/GPX/1/1" xmlns:xsi="http://www.w3.org/2001/XMLSchema-instance" xsi:schemaLocation="http://www.topografix.com/GPX/1/1 http://www.topografix.com/GPX/1/1/gpx.xsd" version="1.1" creator="VisuGPX - https://www.visugpx.com">
  <metadata>
    <name>Course à pied le matin</name>
  </metadata>
  <trk>
    <name><![CDATA[Course à pied le matin_1]]></name>
    <trkseg>
      <trkpt lat="48.20397" lon="5.9383">
        <ele>341.3</ele>
        <time>2024-02-19T07:10:54Z</time>
      </trkpt>
      <trkpt lat="48.20397" lon="5.9383">
        <ele>341.3</ele>
        <time>2024-02-19T07:11:05Z</time>
      </trkpt>
      <trkpt lat="48.20397" lon="5.9383">
        <ele>341.3</ele>
        <time>2024-02-19T07:11:15Z</time>
      </trkpt>
      <trkpt lat="48.20397" lon="5.9383">
        <ele>341.3</ele>
        <time>2024-02-19T07:11:24Z</time>
      </trkpt>
      <trkpt lat="48.20397" lon="5.9383">
        <ele>341.3</ele>
        <time>2024-02-19T07:11:33Z</time>
      </trkpt>
      <trkpt lat="48.20397" lon="5.9383">
        <ele>341.3</ele>
        <time>2024-02-19T07:11:42Z</time>
      </trkpt>
      <trkpt lat="48.20397" lon="5.9383">
        <ele>341.3</ele>
        <time>2024-02-19T07:11:50Z</time>
      </trkpt>
      <trkpt lat="48.20397" lon="5.9383">
        <ele>341.3</ele>
        <time>2024-02-19T07:11:58Z</time>
      </trkpt>
      <trkpt lat="48.20397" lon="5.9383">
        <ele>341.3</ele>
        <time>2024-02-19T07:12:06Z</time>
      </trkpt>
      <trkpt lat="48.20397" lon="5.9383">
        <ele>341.3</ele>
        <time>2024-02-19T07:12:14Z</time>
      </trkpt>
      <trkpt lat="48.20397" lon="5.9383">
        <ele>341.3</ele>
        <time>2024-02-19T07:12:22Z</time>
      </trkpt>
      <trkpt lat="48.20397" lon="5.9383">
        <ele>341.3</ele>
        <time>2024-02-19T07:12:30Z</time>
      </trkpt>
      <trkpt lat="48.20397" lon="5.9383">
        <ele>341.3</ele>
        <time>2024-02-19T07:12:39Z</time>
      </trkpt>
      <trkpt lat="48.20397" lon="5.9383">
        <ele>341.3</ele>
        <time>2024-02-19T07:12:48Z</time>
      </trkpt>
      <trkpt lat="48.20397" lon="5.9383">
        <ele>341.3</ele>
        <time>2024-02-19T07:12:56Z</time>
      </trkpt>
      <trkpt lat="48.20397" lon="5.9383">
        <ele>341.3</ele>
        <time>2024-02-19T07:13:04Z</time>
      </trkpt>
      <trkpt lat="48.20397" lon="5.9383">
        <ele>341.3</ele>
        <time>2024-02-19T07:13:12Z</time>
      </trkpt>
      <trkpt lat="48.20397" lon="5.9383">
        <ele>341.3</ele>
        <time>2024-02-19T07:13:19Z</time>
      </trkpt>
      <trkpt lat="48.20397" lon="5.9383">
        <ele>341.3</ele>
        <time>2024-02-19T07:13:26Z</time>
      </trkpt>
      <trkpt lat="48.20397" lon="5.9383">
        <ele>341.3</ele>
        <time>2024-02-19T07:13:33Z</time>
      </trkpt>
      <trkpt lat="48.20397" lon="5.9383">
        <ele>341.3</ele>
        <time>2024-02-19T07:13:40Z</time>
      </trkpt>
      <trkpt lat="48.20397" lon="5.9383">
        <ele>341.3</ele>
        <time>2024-02-19T07:13:48Z</time>
      </trkpt>
      <trkpt lat="48.20397" lon="5.9383">
        <ele>341.3</ele>
        <time>2024-02-19T07:13:56Z</time>
      </trkpt>
      <trkpt lat="48.20397" lon="5.9383">
        <ele>341.3</ele>
        <time>2024-02-19T07:14:03Z</time>
      </trkpt>
      <trkpt lat="48.20397" lon="5.9383">
        <ele>341.3</ele>
        <time>2024-02-19T07:14:10Z</time>
      </trkpt>
      <trkpt lat="48.20397" lon="5.9383">
        <ele>341.3</ele>
        <time>2024-02-19T07:14:17Z</time>
      </trkpt>
      <trkpt lat="48.20397" lon="5.9383">
        <ele>341.3</ele>
        <time>2024-02-19T07:14:24Z</time>
      </trkpt>
      <trkpt lat="48.20397" lon="5.9383">
        <ele>341.3</ele>
        <time>2024-02-19T07:14:32Z</time>
      </trkpt>
      <trkpt lat="48.20397" lon="5.9383">
        <ele>341.3</ele>
        <time>2024-02-19T07:14:40Z</time>
      </trkpt>
      <trkpt lat="48.20397" lon="5.9383">
        <ele>341.3</ele>
        <time>2024-02-19T07:14:47Z</time>
      </trkpt>
      <trkpt lat="48.20397" lon="5.9383">
        <ele>341.3</ele>
        <time>2024-02-19T07:14:54Z</time>
      </trkpt>
      <trkpt lat="48.20397" lon="5.9383">
        <ele>341.3</ele>
        <time>2024-02-19T07:15:02Z</time>
      </trkpt>
      <trkpt lat="48.20397" lon="5.9383">
        <ele>341.3</ele>
        <time>2024-02-19T07:15:10Z</time>
      </trkpt>
      <trkpt lat="48.20397" lon="5.9383">
        <ele>341.3</ele>
        <time>2024-02-19T07:15:18Z</time>
      </trkpt>
      <trkpt lat="48.20397" lon="5.9383">
        <ele>341.3</ele>
        <time>2024-02-19T07:15:27Z</time>
      </trkpt>
      <trkpt lat="48.20384" lon="5.93804">
        <ele>341.3</ele>
        <time>2024-02-19T07:15:38Z</time>
      </trkpt>
      <trkpt lat="48.20375" lon="5.93776">
        <ele>341.4</ele>
        <time>2024-02-19T07:15:48Z</time>
      </trkpt>
      <trkpt lat="48.20369" lon="5.93749">
        <ele>341.8</ele>
        <time>2024-02-19T07:15:54Z</time>
      </trkpt>
      <trkpt lat="48.20365" lon="5.93722">
        <ele>342.3</ele>
        <time>2024-02-19T07:16:01Z</time>
      </trkpt>
      <trkpt lat="48.20359" lon="5.93693">
        <ele>342.8</ele>
        <time>2024-02-19T07:16:09Z</time>
      </trkpt>
      <trkpt lat="48.20355" lon="5.93664">
        <ele>343.1</ele>
        <time>2024-02-19T07:16:16Z</time>
      </trkpt>
      <trkpt lat="48.20351" lon="5.93636">
        <ele>343.6</ele>
        <time>2024-02-19T07:16:23Z</time>
      </trkpt>
      <trkpt lat="48.20346" lon="5.93607">
        <ele>344.1</ele>
        <time>2024-02-19T07:16:30Z</time>
      </trkpt>
      <trkpt lat="48.20343" lon="5.93578">
        <ele>344.5</ele>
        <time>2024-02-19T07:16:38Z</time>
      </trkpt>
      <trkpt lat="48.2034" lon="5.93551">
        <ele>345</ele>
        <time>2024-02-19T07:16:45Z</time>
      </trkpt>
      <trkpt lat="48.20334" lon="5.93525">
        <ele>345.6</ele>
        <time>2024-02-19T07:16:51Z</time>
      </trkpt>
      <trkpt lat="48.20329" lon="5.93497">
        <ele>346.1</ele>
        <time>2024-02-19T07:16:59Z</time>
      </trkpt>
      <trkpt lat="48.20327" lon="5.93468">
        <ele>346.6</ele>
        <time>2024-02-19T07:17:06Z</time>
      </trkpt>
      <trkpt lat="48.20326" lon="5.93441">
        <ele>347.1</ele>
        <time>2024-02-19T07:17:13Z</time>
      </trkpt>
      <trkpt lat="48.20327" lon="5.93413">
        <ele>347.3</ele>
        <time>2024-02-19T07:17:20Z</time>
      </trkpt>
      <trkpt lat="48.20326" lon="5.93384">
        <ele>347.9</ele>
        <time>2024-02-19T07:17:28Z</time>
      </trkpt>
      <trkpt lat="48.20326" lon="5.93355">
        <ele>348.9</ele>
        <time>2024-02-19T07:17:36Z</time>
      </trkpt>
      <trkpt lat="48.20325" lon="5.93328">
        <ele>349.9</ele>
        <time>2024-02-19T07:17:44Z</time>
      </trkpt>
      <trkpt lat="48.20323" lon="5.93301">
        <ele>351.1</ele>
        <time>2024-02-19T07:17:52Z</time>
      </trkpt>
      <trkpt lat="48.20318" lon="5.93274">
        <ele>352.3</ele>
        <time>2024-02-19T07:18:00Z</time>
      </trkpt>
      <trkpt lat="48.20319" lon="5.93244">
        <ele>353.6</ele>
        <time>2024-02-19T07:18:09Z</time>
      </trkpt>
      <trkpt lat="48.2032" lon="5.93214">
        <ele>354.8</ele>
        <time>2024-02-19T07:18:17Z</time>
      </trkpt>
      <trkpt lat="48.20323" lon="5.93187">
        <ele>356</ele>
        <time>2024-02-19T07:18:24Z</time>
      </trkpt>
      <trkpt lat="48.20327" lon="5.93159">
        <ele>357.5</ele>
        <time>2024-02-19T07:18:32Z</time>
      </trkpt>
      <trkpt lat="48.2033" lon="5.93131">
        <ele>359.2</ele>
        <time>2024-02-19T07:18:40Z</time>
      </trkpt>
      <trkpt lat="48.20333" lon="5.93103">
        <ele>360.9</ele>
        <time>2024-02-19T07:18:49Z</time>
      </trkpt>
      <trkpt lat="48.20333" lon="5.93076">
        <ele>362.5</ele>
        <time>2024-02-19T07:18:57Z</time>
      </trkpt>
      <trkpt lat="48.20333" lon="5.93046">
        <ele>364.2</ele>
        <time>2024-02-19T07:19:06Z</time>
      </trkpt>
      <trkpt lat="48.20334" lon="5.93019">
        <ele>365.9</ele>
        <time>2024-02-19T07:19:14Z</time>
      </trkpt>
      <trkpt lat="48.20334" lon="5.92989">
        <ele>367.8</ele>
        <time>2024-02-19T07:19:23Z</time>
      </trkpt>
      <trkpt lat="48.20331" lon="5.92959">
        <ele>369.8</ele>
        <time>2024-02-19T07:19:32Z</time>
      </trkpt>
      <trkpt lat="48.20328" lon="5.92929">
        <ele>372</ele>
        <time>2024-02-19T07:19:41Z</time>
      </trkpt>
      <trkpt lat="48.20323" lon="5.92903">
        <ele>373.8</ele>
        <time>2024-02-19T07:19:49Z</time>
      </trkpt>
      <trkpt lat="48.2032" lon="5.92877">
        <ele>375</ele>
        <time>2024-02-19T07:19:57Z</time>
      </trkpt>
      <trkpt lat="48.20333" lon="5.92858">
        <ele>377</ele>
        <time>2024-02-19T07:20:07Z</time>
      </trkpt>
      <trkpt lat="48.20342" lon="5.92856">
        <ele>377.9</ele>
        <time>2024-02-19T07:20:13Z</time>
      </trkpt>
      <trkpt lat="48.2035" lon="5.92868">
        <ele>377.7</ele>
        <time>2024-02-19T07:20:20Z</time>
      </trkpt>
      <trkpt lat="48.20366" lon="5.92887">
        <ele>376.9</ele>
        <time>2024-02-19T07:20:30Z</time>
      </trkpt>
      <trkpt lat="48.20383" lon="5.92902">
        <ele>375.3</ele>
        <time>2024-02-19T07:20:38Z</time>
      </trkpt>
      <trkpt lat="48.204" lon="5.92915">
        <ele>373.5</ele>
        <time>2024-02-19T07:20:47Z</time>
      </trkpt>
      <trkpt lat="48.20416" lon="5.9293">
        <ele>371.4</ele>
        <time>2024-02-19T07:20:55Z</time>
      </trkpt>
      <trkpt lat="48.20431" lon="5.9295">
        <ele>368.9</ele>
        <time>2024-02-19T07:21:00Z</time>
      </trkpt>
      <trkpt lat="48.20444" lon="5.9297">
        <ele>366.7</ele>
        <time>2024-02-19T07:21:06Z</time>
      </trkpt>
      <trkpt lat="48.20459" lon="5.92987">
        <ele>365.2</ele>
        <time>2024-02-19T07:21:12Z</time>
      </trkpt>
      <trkpt lat="48.20475" lon="5.93004">
        <ele>364.2</ele>
        <time>2024-02-19T07:21:18Z</time>
      </trkpt>
      <trkpt lat="48.20492" lon="5.9302">
        <ele>363.2</ele>
        <time>2024-02-19T07:21:24Z</time>
      </trkpt>
      <trkpt lat="48.20509" lon="5.93033">
        <ele>362.3</ele>
        <time>2024-02-19T07:21:30Z</time>
      </trkpt>
      <trkpt lat="48.20525" lon="5.93049">
        <ele>361.4</ele>
        <time>2024-02-19T07:21:36Z</time>
      </trkpt>
      <trkpt lat="48.20541" lon="5.93068">
        <ele>360.4</ele>
        <time>2024-02-19T07:21:45Z</time>
      </trkpt>
      <trkpt lat="48.20555" lon="5.93087">
        <ele>359.3</ele>
        <time>2024-02-19T07:21:53Z</time>
      </trkpt>
      <trkpt lat="48.20563" lon="5.93094">
        <ele>358.7</ele>
        <time>2024-02-19T07:21:58Z</time>
      </trkpt>
      <trkpt lat="48.20576" lon="5.93111">
        <ele>357.7</ele>
        <time>2024-02-19T07:22:05Z</time>
      </trkpt>
      <trkpt lat="48.20594" lon="5.93128">
        <ele>356.7</ele>
        <time>2024-02-19T07:22:10Z</time>
      </trkpt>
      <trkpt lat="48.20613" lon="5.9314">
        <ele>355.7</ele>
        <time>2024-02-19T07:22:15Z</time>
      </trkpt>
      <trkpt lat="48.20632" lon="5.93148">
        <ele>354.1</ele>
        <time>2024-02-19T07:22:20Z</time>
      </trkpt>
      <trkpt lat="48.20652" lon="5.93158">
        <ele>351.6</ele>
        <time>2024-02-19T07:22:27Z</time>
      </trkpt>
      <trkpt lat="48.2067" lon="5.93167">
        <ele>348.8</ele>
        <time>2024-02-19T07:22:33Z</time>
      </trkpt>
      <trkpt lat="48.20692" lon="5.93178">
        <ele>346.2</ele>
        <time>2024-02-19T07:22:37Z</time>
      </trkpt>
      <trkpt lat="48.20709" lon="5.93187">
        <ele>345.1</ele>
        <time>2024-02-19T07:22:41Z</time>
      </trkpt>
      <trkpt lat="48.20726" lon="5.93199">
        <ele>344.3</ele>
        <time>2024-02-19T07:22:46Z</time>
      </trkpt>
      <trkpt lat="48.20746" lon="5.93208">
        <ele>343.6</ele>
        <time>2024-02-19T07:22:52Z</time>
      </trkpt>
      <trkpt lat="48.20763" lon="5.93219">
        <ele>343</ele>
        <time>2024-02-19T07:22:57Z</time>
      </trkpt>
      <trkpt lat="48.20779" lon="5.93237">
        <ele>342.5</ele>
        <time>2024-02-19T07:23:02Z</time>
      </trkpt>
      <trkpt lat="48.20796" lon="5.93252">
        <ele>342</ele>
        <time>2024-02-19T07:23:08Z</time>
      </trkpt>
      <trkpt lat="48.20813" lon="5.93265">
        <ele>341.6</ele>
        <time>2024-02-19T07:23:15Z</time>
      </trkpt>
      <trkpt lat="48.2083" lon="5.93279">
        <ele>341.3</ele>
        <time>2024-02-19T07:23:23Z</time>
      </trkpt>
      <trkpt lat="48.20849" lon="5.93293">
        <ele>340.9</ele>
        <time>2024-02-19T07:23:29Z</time>
      </trkpt>
      <trkpt lat="48.20867" lon="5.93306">
        <ele>340.5</ele>
        <time>2024-02-19T07:23:34Z</time>
      </trkpt>
      <trkpt lat="48.20886" lon="5.93321">
        <ele>340</ele>
        <time>2024-02-19T07:23:40Z</time>
      </trkpt>
      <trkpt lat="48.20905" lon="5.93334">
        <ele>339.4</ele>
        <time>2024-02-19T07:23:46Z</time>
      </trkpt>
      <trkpt lat="48.20923" lon="5.9335">
        <ele>338.9</ele>
        <time>2024-02-19T07:23:52Z</time>
      </trkpt>
      <trkpt lat="48.2094" lon="5.93367">
        <ele>338.4</ele>
        <time>2024-02-19T07:23:58Z</time>
      </trkpt>
      <trkpt lat="48.20955" lon="5.93382">
        <ele>338</ele>
        <time>2024-02-19T07:24:04Z</time>
      </trkpt>
      <trkpt lat="48.2097" lon="5.93404">
        <ele>337.6</ele>
        <time>2024-02-19T07:24:11Z</time>
      </trkpt>
      <trkpt lat="48.20984" lon="5.93426">
        <ele>337.2</ele>
        <time>2024-02-19T07:24:18Z</time>
      </trkpt>
      <trkpt lat="48.20997" lon="5.93448">
        <ele>336.8</ele>
        <time>2024-02-19T07:24:25Z</time>
      </trkpt>
      <trkpt lat="48.21009" lon="5.93471">
        <ele>336.5</ele>
        <time>2024-02-19T07:24:31Z</time>
      </trkpt>
      <trkpt lat="48.2102" lon="5.93495">
        <ele>336.1</ele>
        <time>2024-02-19T07:24:37Z</time>
      </trkpt>
      <trkpt lat="48.21032" lon="5.93518">
        <ele>335.8</ele>
        <time>2024-02-19T07:24:44Z</time>
      </trkpt>
      <trkpt lat="48.21047" lon="5.93535">
        <ele>335.5</ele>
        <time>2024-02-19T07:24:50Z</time>
      </trkpt>
      <trkpt lat="48.21064" lon="5.93552">
        <ele>335.2</ele>
        <time>2024-02-19T07:24:56Z</time>
      </trkpt>
      <trkpt lat="48.21079" lon="5.93568">
        <ele>335</ele>
        <time>2024-02-19T07:25:02Z</time>
      </trkpt>
      <trkpt lat="48.21093" lon="5.93586">
        <ele>334.9</ele>
        <time>2024-02-19T07:25:08Z</time>
      </trkpt>
      <trkpt lat="48.21107" lon="5.93606">
        <ele>334.8</ele>
        <time>2024-02-19T07:25:15Z</time>
      </trkpt>
      <trkpt lat="48.21122" lon="5.93625">
        <ele>334.5</ele>
        <time>2024-02-19T07:25:22Z</time>
      </trkpt>
      <trkpt lat="48.21136" lon="5.93645">
        <ele>334.3</ele>
        <time>2024-02-19T07:25:31Z</time>
      </trkpt>
      <trkpt lat="48.21154" lon="5.93663">
        <ele>334.1</ele>
        <time>2024-02-19T07:25:37Z</time>
      </trkpt>
      <trkpt lat="48.21173" lon="5.9368">
        <ele>334</ele>
        <time>2024-02-19T07:25:43Z</time>
      </trkpt>
      <trkpt lat="48.21188" lon="5.93694">
        <ele>333.9</ele>
        <time>2024-02-19T07:25:48Z</time>
      </trkpt>
      <trkpt lat="48.21204" lon="5.93711">
        <ele>334.1</ele>
        <time>2024-02-19T07:25:55Z</time>
      </trkpt>
      <trkpt lat="48.21206" lon="5.93736">
        <ele>334.4</ele>
        <time>2024-02-19T07:26:03Z</time>
      </trkpt>
      <trkpt lat="48.21188" lon="5.93743">
        <ele>334.1</ele>
        <time>2024-02-19T07:26:11Z</time>
      </trkpt>
      <trkpt lat="48.21184" lon="5.93754">
        <ele>333.7</ele>
        <time>2024-02-19T07:26:14Z</time>
      </trkpt>
      <trkpt lat="48.21187" lon="5.9376">
        <ele>333.4</ele>
        <time>2024-02-19T07:26:16Z</time>
      </trkpt>
      <trkpt lat="48.21207" lon="5.93765">
        <ele>333.2</ele>
        <time>2024-02-19T07:26:25Z</time>
      </trkpt>
      <trkpt lat="48.21225" lon="5.93772">
        <ele>333</ele>
        <time>2024-02-19T07:26:35Z</time>
      </trkpt>
      <trkpt lat="48.21242" lon="5.93789">
        <ele>332.9</ele>
        <time>2024-02-19T07:26:42Z</time>
      </trkpt>
      <trkpt lat="48.21262" lon="5.93798">
        <ele>332.7</ele>
        <time>2024-02-19T07:26:48Z</time>
      </trkpt>
      <trkpt lat="48.2128" lon="5.9381">
        <ele>332.6</ele>
        <time>2024-02-19T07:26:54Z</time>
      </trkpt>
      <trkpt lat="48.21297" lon="5.93823">
        <ele>332.5</ele>
        <time>2024-02-19T07:27:02Z</time>
      </trkpt>
      <trkpt lat="48.21312" lon="5.93842">
        <ele>332.5</ele>
        <time>2024-02-19T07:27:10Z</time>
      </trkpt>
      <trkpt lat="48.21326" lon="5.93863">
        <ele>332.5</ele>
        <time>2024-02-19T07:27:19Z</time>
      </trkpt>
      <trkpt lat="48.21346" lon="5.93877">
        <ele>332.5</ele>
        <time>2024-02-19T07:27:25Z</time>
      </trkpt>
      <trkpt lat="48.21364" lon="5.93886">
        <ele>332.5</ele>
        <time>2024-02-19T07:27:30Z</time>
      </trkpt>
      <trkpt lat="48.21383" lon="5.93888">
        <ele>332.5</ele>
        <time>2024-02-19T07:27:36Z</time>
      </trkpt>
      <trkpt lat="48.21403" lon="5.93891">
        <ele>332.4</ele>
        <time>2024-02-19T07:27:43Z</time>
      </trkpt>
      <trkpt lat="48.2142" lon="5.93898">
        <ele>332.4</ele>
        <time>2024-02-19T07:27:50Z</time>
      </trkpt>
      <trkpt lat="48.21438" lon="5.93905">
        <ele>332.4</ele>
        <time>2024-02-19T07:27:58Z</time>
      </trkpt>
      <trkpt lat="48.21456" lon="5.93914">
        <ele>332.5</ele>
        <time>2024-02-19T07:28:04Z</time>
      </trkpt>
      <trkpt lat="48.21476" lon="5.93923">
        <ele>332.6</ele>
        <time>2024-02-19T07:28:10Z</time>
      </trkpt>
      <trkpt lat="48.21496" lon="5.93931">
        <ele>332.7</ele>
        <time>2024-02-19T07:28:16Z</time>
      </trkpt>
      <trkpt lat="48.21514" lon="5.93933">
        <ele>332.7</ele>
        <time>2024-02-19T07:28:22Z</time>
      </trkpt>
      <trkpt lat="48.21533" lon="5.93932">
        <ele>332.7</ele>
        <time>2024-02-19T07:28:28Z</time>
      </trkpt>
      <trkpt lat="48.21554" lon="5.93931">
        <ele>332.5</ele>
        <time>2024-02-19T07:28:35Z</time>
      </trkpt>
      <trkpt lat="48.21573" lon="5.93931">
        <ele>332.3</ele>
        <time>2024-02-19T07:28:42Z</time>
      </trkpt>
      <trkpt lat="48.21593" lon="5.9393">
        <ele>332</ele>
        <time>2024-02-19T07:28:49Z</time>
      </trkpt>
      <trkpt lat="48.21612" lon="5.9392">
        <ele>331.8</ele>
        <time>2024-02-19T07:28:55Z</time>
      </trkpt>
      <trkpt lat="48.21628" lon="5.93907">
        <ele>331.8</ele>
        <time>2024-02-19T07:29:01Z</time>
      </trkpt>
      <trkpt lat="48.21646" lon="5.93892">
        <ele>331.8</ele>
        <time>2024-02-19T07:29:08Z</time>
      </trkpt>
      <trkpt lat="48.21663" lon="5.93883">
        <ele>331.9</ele>
        <time>2024-02-19T07:29:14Z</time>
      </trkpt>
      <trkpt lat="48.21677" lon="5.93879">
        <ele>331.8</ele>
        <time>2024-02-19T07:29:23Z</time>
      </trkpt>
      <trkpt lat="48.2168" lon="5.93878">
        <ele>331.7</ele>
        <time>2024-02-19T07:29:25Z</time>
      </trkpt>
      <trkpt lat="48.21685" lon="5.93882">
        <ele>331.7</ele>
        <time>2024-02-19T07:29:28Z</time>
      </trkpt>
      <trkpt lat="48.21706" lon="5.93894">
        <ele>331.5</ele>
        <time>2024-02-19T07:29:35Z</time>
      </trkpt>
      <trkpt lat="48.21724" lon="5.93914">
        <ele>331.4</ele>
        <time>2024-02-19T07:29:39Z</time>
      </trkpt>
      <trkpt lat="48.21742" lon="5.93933">
        <ele>331.3</ele>
        <time>2024-02-19T07:29:44Z</time>
      </trkpt>
      <trkpt lat="48.21756" lon="5.93956">
        <ele>331.1</ele>
        <time>2024-02-19T07:29:50Z</time>
      </trkpt>
      <trkpt lat="48.21765" lon="5.93981">
        <ele>331</ele>
        <time>2024-02-19T07:29:56Z</time>
      </trkpt>
      <trkpt lat="48.21765" lon="5.94005">
        <ele>331</ele>
        <time>2024-02-19T07:30:02Z</time>
      </trkpt>
      <trkpt lat="48.21749" lon="5.94028">
        <ele>331</ele>
        <time>2024-02-19T07:30:09Z</time>
      </trkpt>
      <trkpt lat="48.21737" lon="5.94056">
        <ele>330.9</ele>
        <time>2024-02-19T07:30:17Z</time>
      </trkpt>
      <trkpt lat="48.21749" lon="5.94105">
        <ele>330.9</ele>
        <time>2024-02-19T07:30:28Z</time>
      </trkpt>
      <trkpt lat="48.21765" lon="5.94132">
        <ele>330.9</ele>
        <time>2024-02-19T07:30:33Z</time>
      </trkpt>
      <trkpt lat="48.21775" lon="5.94155">
        <ele>330.9</ele>
        <time>2024-02-19T07:30:38Z</time>
      </trkpt>
      <trkpt lat="48.21783" lon="5.94183">
        <ele>331</ele>
        <time>2024-02-19T07:30:44Z</time>
      </trkpt>
      <trkpt lat="48.2179" lon="5.9421">
        <ele>331</ele>
        <time>2024-02-19T07:30:50Z</time>
      </trkpt>
      <trkpt lat="48.21799" lon="5.94235">
        <ele>331</ele>
        <time>2024-02-19T07:30:56Z</time>
      </trkpt>
      <trkpt lat="48.2181" lon="5.94259">
        <ele>331</ele>
        <time>2024-02-19T07:31:02Z</time>
      </trkpt>
      <trkpt lat="48.21818" lon="5.94287">
        <ele>331.1</ele>
        <time>2024-02-19T07:31:09Z</time>
      </trkpt>
      <trkpt lat="48.21827" lon="5.94311">
        <ele>331.1</ele>
        <time>2024-02-19T07:31:15Z</time>
      </trkpt>
      <trkpt lat="48.21833" lon="5.94337">
        <ele>331.2</ele>
        <time>2024-02-19T07:31:21Z</time>
      </trkpt>
      <trkpt lat="48.21847" lon="5.94355">
        <ele>331.5</ele>
        <time>2024-02-19T07:31:28Z</time>
      </trkpt>
      <trkpt lat="48.21867" lon="5.94352">
        <ele>331.6</ele>
        <time>2024-02-19T07:31:35Z</time>
      </trkpt>
      <trkpt lat="48.21886" lon="5.94342">
        <ele>331.7</ele>
        <time>2024-02-19T07:31:43Z</time>
      </trkpt>
      <trkpt lat="48.21903" lon="5.94332">
        <ele>331.8</ele>
        <time>2024-02-19T07:31:49Z</time>
      </trkpt>
      <trkpt lat="48.2192" lon="5.94323">
        <ele>332</ele>
        <time>2024-02-19T07:31:55Z</time>
      </trkpt>
      <trkpt lat="48.21923" lon="5.94324">
        <ele>332</ele>
        <time>2024-02-19T07:31:56Z</time>
      </trkpt>
      <trkpt lat="48.21937" lon="5.94346">
        <ele>332.3</ele>
        <time>2024-02-19T07:32:03Z</time>
      </trkpt>
      <trkpt lat="48.21939" lon="5.94371">
        <ele>332.5</ele>
        <time>2024-02-19T07:32:09Z</time>
      </trkpt>
      <trkpt lat="48.21925" lon="5.94392">
        <ele>332.5</ele>
        <time>2024-02-19T07:32:18Z</time>
      </trkpt>
      <trkpt lat="48.21909" lon="5.94407">
        <ele>332.6</ele>
        <time>2024-02-19T07:32:26Z</time>
      </trkpt>
      <trkpt lat="48.21893" lon="5.94424">
        <ele>332.6</ele>
        <time>2024-02-19T07:32:36Z</time>
      </trkpt>
      <trkpt lat="48.21875" lon="5.94437">
        <ele>332.8</ele>
        <time>2024-02-19T07:32:44Z</time>
      </trkpt>
      <trkpt lat="48.21858" lon="5.94449">
        <ele>332.8</ele>
        <time>2024-02-19T07:32:49Z</time>
      </trkpt>
      <trkpt lat="48.21842" lon="5.94467">
        <ele>332.9</ele>
        <time>2024-02-19T07:32:54Z</time>
      </trkpt>
      <trkpt lat="48.21826" lon="5.94487">
        <ele>333.4</ele>
        <time>2024-02-19T07:33:00Z</time>
      </trkpt>
      <trkpt lat="48.21812" lon="5.94506">
        <ele>334.3</ele>
        <time>2024-02-19T07:33:07Z</time>
      </trkpt>
      <trkpt lat="48.21798" lon="5.94526">
        <ele>335.7</ele>
        <time>2024-02-19T07:33:14Z</time>
      </trkpt>
      <trkpt lat="48.21784" lon="5.94543">
        <ele>337.1</ele>
        <time>2024-02-19T07:33:22Z</time>
      </trkpt>
      <trkpt lat="48.21767" lon="5.94553">
        <ele>338.1</ele>
        <time>2024-02-19T07:33:28Z</time>
      </trkpt>
      <trkpt lat="48.21749" lon="5.94569">
        <ele>338.6</ele>
        <time>2024-02-19T07:33:35Z</time>
      </trkpt>
      <trkpt lat="48.21732" lon="5.94583">
        <ele>338.6</ele>
        <time>2024-02-19T07:33:40Z</time>
      </trkpt>
      <trkpt lat="48.21712" lon="5.94596">
        <ele>337.8</ele>
        <time>2024-02-19T07:33:45Z</time>
      </trkpt>
      <trkpt lat="48.21693" lon="5.94603">
        <ele>336.6</ele>
        <time>2024-02-19T07:33:50Z</time>
      </trkpt>
      <trkpt lat="48.21674" lon="5.94601">
        <ele>335.8</ele>
        <time>2024-02-19T07:33:55Z</time>
      </trkpt>
      <trkpt lat="48.21654" lon="5.94604">
        <ele>334.7</ele>
        <time>2024-02-19T07:34:02Z</time>
      </trkpt>
      <trkpt lat="48.21636" lon="5.94616">
        <ele>334.3</ele>
        <time>2024-02-19T07:34:08Z</time>
      </trkpt>
      <trkpt lat="48.2162" lon="5.94628">
        <ele>334.3</ele>
        <time>2024-02-19T07:34:14Z</time>
      </trkpt>
      <trkpt lat="48.21604" lon="5.94643">
        <ele>334.5</ele>
        <time>2024-02-19T07:34:21Z</time>
      </trkpt>
      <trkpt lat="48.21587" lon="5.94657">
        <ele>334.9</ele>
        <time>2024-02-19T07:34:28Z</time>
      </trkpt>
      <trkpt lat="48.21569" lon="5.94672">
        <ele>335.7</ele>
        <time>2024-02-19T07:34:35Z</time>
      </trkpt>
      <trkpt lat="48.21553" lon="5.94688">
        <ele>336.6</ele>
        <time>2024-02-19T07:34:42Z</time>
      </trkpt>
      <trkpt lat="48.21535" lon="5.94704">
        <ele>337.4</ele>
        <time>2024-02-19T07:34:49Z</time>
      </trkpt>
      <trkpt lat="48.2152" lon="5.9472">
        <ele>337.8</ele>
        <time>2024-02-19T07:34:55Z</time>
      </trkpt>
      <trkpt lat="48.21505" lon="5.94741">
        <ele>337.8</ele>
        <time>2024-02-19T07:35:02Z</time>
      </trkpt>
      <trkpt lat="48.2149" lon="5.94759">
        <ele>337.5</ele>
        <time>2024-02-19T07:35:09Z</time>
      </trkpt>
      <trkpt lat="48.21474" lon="5.94774">
        <ele>337.3</ele>
        <time>2024-02-19T07:35:15Z</time>
      </trkpt>
      <trkpt lat="48.21454" lon="5.94782">
        <ele>337.2</ele>
        <time>2024-02-19T07:35:21Z</time>
      </trkpt>
      <trkpt lat="48.21436" lon="5.94784">
        <ele>337.1</ele>
        <time>2024-02-19T07:35:27Z</time>
      </trkpt>
      <trkpt lat="48.21416" lon="5.94786">
        <ele>336.6</ele>
        <time>2024-02-19T07:35:34Z</time>
      </trkpt>
      <trkpt lat="48.21398" lon="5.94789">
        <ele>335.8</ele>
        <time>2024-02-19T07:35:40Z</time>
      </trkpt>
      <trkpt lat="48.21379" lon="5.9479">
        <ele>335</ele>
        <time>2024-02-19T07:35:47Z</time>
      </trkpt>
      <trkpt lat="48.2136" lon="5.9479">
        <ele>334.5</ele>
        <time>2024-02-19T07:35:53Z</time>
      </trkpt>
      <trkpt lat="48.21341" lon="5.94791">
        <ele>334.4</ele>
        <time>2024-02-19T07:35:59Z</time>
      </trkpt>
      <trkpt lat="48.21322" lon="5.94791">
        <ele>334.5</ele>
        <time>2024-02-19T07:36:05Z</time>
      </trkpt>
      <trkpt lat="48.21304" lon="5.94791">
        <ele>335.1</ele>
        <time>2024-02-19T07:36:11Z</time>
      </trkpt>
      <trkpt lat="48.21285" lon="5.9479">
        <ele>336.2</ele>
        <time>2024-02-19T07:36:18Z</time>
      </trkpt>
      <trkpt lat="48.21264" lon="5.94791">
        <ele>337.4</ele>
        <time>2024-02-19T07:36:25Z</time>
      </trkpt>
      <trkpt lat="48.21246" lon="5.94794">
        <ele>338.1</ele>
        <time>2024-02-19T07:36:32Z</time>
      </trkpt>
      <trkpt lat="48.21227" lon="5.94792">
        <ele>338.3</ele>
        <time>2024-02-19T07:36:38Z</time>
      </trkpt>
      <trkpt lat="48.21208" lon="5.94791">
        <ele>338.3</ele>
        <time>2024-02-19T07:36:44Z</time>
      </trkpt>
      <trkpt lat="48.21188" lon="5.94789">
        <ele>338.2</ele>
        <time>2024-02-19T07:36:50Z</time>
      </trkpt>
      <trkpt lat="48.21169" lon="5.94784">
        <ele>337.9</ele>
        <time>2024-02-19T07:36:56Z</time>
      </trkpt>
      <trkpt lat="48.21151" lon="5.94777">
        <ele>337.5</ele>
        <time>2024-02-19T07:37:02Z</time>
      </trkpt>
      <trkpt lat="48.21133" lon="5.94769">
        <ele>337.1</ele>
        <time>2024-02-19T07:37:08Z</time>
      </trkpt>
      <trkpt lat="48.21116" lon="5.94759">
        <ele>336.8</ele>
        <time>2024-02-19T07:37:15Z</time>
      </trkpt>
      <trkpt lat="48.21098" lon="5.9475">
        <ele>336.4</ele>
        <time>2024-02-19T07:37:22Z</time>
      </trkpt>
      <trkpt lat="48.21079" lon="5.94739">
        <ele>335.8</ele>
        <time>2024-02-19T07:37:28Z</time>
      </trkpt>
      <trkpt lat="48.2106" lon="5.94728">
        <ele>335.1</ele>
        <time>2024-02-19T07:37:34Z</time>
      </trkpt>
      <trkpt lat="48.21053" lon="5.94728">
        <ele>335</ele>
        <time>2024-02-19T07:37:37Z</time>
      </trkpt>
      <trkpt lat="48.21053" lon="5.94737">
        <ele>335.5</ele>
        <time>2024-02-19T07:37:40Z</time>
      </trkpt>
      <trkpt lat="48.21067" lon="5.9476">
        <ele>336.7</ele>
        <time>2024-02-19T07:37:48Z</time>
      </trkpt>
      <trkpt lat="48.21079" lon="5.94783">
        <ele>338</ele>
        <time>2024-02-19T07:37:56Z</time>
      </trkpt>
      <trkpt lat="48.21091" lon="5.94807">
        <ele>339.3</ele>
        <time>2024-02-19T07:38:04Z</time>
      </trkpt>
      <trkpt lat="48.21105" lon="5.94825">
        <ele>340.4</ele>
        <time>2024-02-19T07:38:11Z</time>
      </trkpt>
      <trkpt lat="48.21117" lon="5.94847">
        <ele>341.6</ele>
        <time>2024-02-19T07:38:19Z</time>
      </trkpt>
      <trkpt lat="48.21128" lon="5.94869">
        <ele>342.8</ele>
        <time>2024-02-19T07:38:26Z</time>
      </trkpt>
      <trkpt lat="48.21141" lon="5.94889">
        <ele>343.8</ele>
        <time>2024-02-19T07:38:33Z</time>
      </trkpt>
      <trkpt lat="48.21157" lon="5.94905">
        <ele>344.8</ele>
        <time>2024-02-19T07:38:41Z</time>
      </trkpt>
      <trkpt lat="48.21176" lon="5.94915">
        <ele>345</ele>
        <time>2024-02-19T07:38:48Z</time>
      </trkpt>
      <trkpt lat="48.21194" lon="5.94918">
        <ele>345.1</ele>
        <time>2024-02-19T07:38:56Z</time>
      </trkpt>
      <trkpt lat="48.21212" lon="5.94927">
        <ele>345</ele>
        <time>2024-02-19T07:39:05Z</time>
      </trkpt>
      <trkpt lat="48.21224" lon="5.9495">
        <ele>345.1</ele>
        <time>2024-02-19T07:39:12Z</time>
      </trkpt>
      <trkpt lat="48.21231" lon="5.94979">
        <ele>345.5</ele>
        <time>2024-02-19T07:39:19Z</time>
      </trkpt>
      <trkpt lat="48.21237" lon="5.95006">
        <ele>346.1</ele>
        <time>2024-02-19T07:39:26Z</time>
      </trkpt>
      <trkpt lat="48.21242" lon="5.95034">
        <ele>346.9</ele>
        <time>2024-02-19T07:39:35Z</time>
      </trkpt>
      <trkpt lat="48.21243" lon="5.9506">
        <ele>347.8</ele>
        <time>2024-02-19T07:39:44Z</time>
      </trkpt>
      <trkpt lat="48.21239" lon="5.95084">
        <ele>348.6</ele>
        <time>2024-02-19T07:39:56Z</time>
      </trkpt>
      <trkpt lat="48.21225" lon="5.95102">
        <ele>349.3</ele>
        <time>2024-02-19T07:40:09Z</time>
      </trkpt>
      <trkpt lat="48.21217" lon="5.95126">
        <ele>349.9</ele>
        <time>2024-02-19T07:40:21Z</time>
      </trkpt>
      <trkpt lat="48.21203" lon="5.95147">
        <ele>350.6</ele>
        <time>2024-02-19T07:40:30Z</time>
      </trkpt>
      <trkpt lat="48.21192" lon="5.95171">
        <ele>351.2</ele>
        <time>2024-02-19T07:40:38Z</time>
      </trkpt>
      <trkpt lat="48.21196" lon="5.95198">
        <ele>351.7</ele>
        <time>2024-02-19T07:40:47Z</time>
      </trkpt>
      <trkpt lat="48.21196" lon="5.95225">
        <ele>352.1</ele>
        <time>2024-02-19T07:40:56Z</time>
      </trkpt>
      <trkpt lat="48.21197" lon="5.95225">
        <ele>352.1</ele>
        <time>2024-02-19T07:40:57Z</time>
      </trkpt>
      <trkpt lat="48.21199" lon="5.95218">
        <ele>352</ele>
        <time>2024-02-19T07:41:03Z</time>
      </trkpt>
      <trkpt lat="48.21189" lon="5.95192">
        <ele>351.6</ele>
        <time>2024-02-19T07:41:12Z</time>
      </trkpt>
      <trkpt lat="48.21193" lon="5.95165">
        <ele>351.1</ele>
        <time>2024-02-19T07:41:19Z</time>
      </trkpt>
      <trkpt lat="48.21206" lon="5.95142">
        <ele>350.5</ele>
        <time>2024-02-19T07:41:26Z</time>
      </trkpt>
      <trkpt lat="48.2122" lon="5.9512">
        <ele>349.8</ele>
        <time>2024-02-19T07:41:33Z</time>
      </trkpt>
      <trkpt lat="48.21236" lon="5.95101">
        <ele>349.1</ele>
        <time>2024-02-19T07:41:40Z</time>
      </trkpt>
      <trkpt lat="48.21239" lon="5.95101">
        <ele>349.1</ele>
        <time>2024-02-19T07:41:43Z</time>
      </trkpt>
      <trkpt lat="48.21245" lon="5.95127">
        <ele>349.7</ele>
        <time>2024-02-19T07:41:51Z</time>
      </trkpt>
      <trkpt lat="48.21252" lon="5.95154">
        <ele>350.4</ele>
        <time>2024-02-19T07:41:58Z</time>
      </trkpt>
      <trkpt lat="48.21254" lon="5.95181">
        <ele>351</ele>
        <time>2024-02-19T07:42:05Z</time>
      </trkpt>
      <trkpt lat="48.21249" lon="5.95209">
        <ele>351.5</ele>
        <time>2024-02-19T07:42:12Z</time>
      </trkpt>
      <trkpt lat="48.21254" lon="5.95236">
        <ele>351.9</ele>
        <time>2024-02-19T07:42:19Z</time>
      </trkpt>
      <trkpt lat="48.2125" lon="5.95264">
        <ele>352.5</ele>
        <time>2024-02-19T07:42:27Z</time>
      </trkpt>
      <trkpt lat="48.21249" lon="5.95293">
        <ele>353.7</ele>
        <time>2024-02-19T07:42:37Z</time>
      </trkpt>
      <trkpt lat="48.21243" lon="5.95304">
        <ele>354.5</ele>
        <time>2024-02-19T07:42:45Z</time>
      </trkpt>
      <trkpt lat="48.21241" lon="5.95306">
        <ele>354.8</ele>
        <time>2024-02-19T07:42:48Z</time>
      </trkpt>
      <trkpt lat="48.2124" lon="5.95307">
        <ele>354.9</ele>
        <time>2024-02-19T07:42:49Z</time>
      </trkpt>
      <trkpt lat="48.2123" lon="5.95323">
        <ele>356.6</ele>
        <time>2024-02-19T07:43:14Z</time>
      </trkpt>
      <trkpt lat="48.21229" lon="5.95325">
        <ele>356.7</ele>
        <time>2024-02-19T07:43:15Z</time>
      </trkpt>
      <trkpt lat="48.2123" lon="5.95327">
        <ele>356.9</ele>
        <time>2024-02-19T07:43:16Z</time>
      </trkpt>
      <trkpt lat="48.21228" lon="5.95354">
        <ele>359.5</ele>
        <time>2024-02-19T07:43:30Z</time>
      </trkpt>
      <trkpt lat="48.21224" lon="5.95362">
        <ele>360.6</ele>
        <time>2024-02-19T07:43:37Z</time>
      </trkpt>
      <trkpt lat="48.21224" lon="5.95364">
        <ele>360.9</ele>
        <time>2024-02-19T07:43:39Z</time>
      </trkpt>
      <trkpt lat="48.21225" lon="5.95366">
        <ele>361.2</ele>
        <time>2024-02-19T07:43:41Z</time>
      </trkpt>
      <trkpt lat="48.21225" lon="5.9537">
        <ele>361.6</ele>
        <time>2024-02-19T07:43:43Z</time>
      </trkpt>
      <trkpt lat="48.21224" lon="5.95393">
        <ele>364.6</ele>
        <time>2024-02-19T07:43:56Z</time>
      </trkpt>
      <trkpt lat="48.21219" lon="5.95417">
        <ele>367.6</ele>
        <time>2024-02-19T07:44:07Z</time>
      </trkpt>
      <trkpt lat="48.21215" lon="5.9542">
        <ele>368.1</ele>
        <time>2024-02-19T07:44:10Z</time>
      </trkpt>
      <trkpt lat="48.21196" lon="5.95414">
        <ele>368.9</ele>
        <time>2024-02-19T07:44:17Z</time>
      </trkpt>
      <trkpt lat="48.2118" lon="5.954">
        <ele>369.9</ele>
        <time>2024-02-19T07:44:27Z</time>
      </trkpt>
      <trkpt lat="48.21164" lon="5.95381">
        <ele>370.8</ele>
        <time>2024-02-19T07:44:36Z</time>
      </trkpt>
      <trkpt lat="48.21146" lon="5.95367">
        <ele>371.3</ele>
        <time>2024-02-19T07:44:44Z</time>
      </trkpt>
      <trkpt lat="48.21128" lon="5.95358">
        <ele>371.1</ele>
        <time>2024-02-19T07:44:51Z</time>
      </trkpt>
      <trkpt lat="48.21109" lon="5.95353">
        <ele>370.5</ele>
        <time>2024-02-19T07:44:58Z</time>
      </trkpt>
      <trkpt lat="48.2109" lon="5.95344">
        <ele>369.3</ele>
        <time>2024-02-19T07:45:05Z</time>
      </trkpt>
      <trkpt lat="48.21072" lon="5.95337">
        <ele>368</ele>
        <time>2024-02-19T07:45:10Z</time>
      </trkpt>
      <trkpt lat="48.21053" lon="5.95331">
        <ele>366.4</ele>
        <time>2024-02-19T07:45:16Z</time>
      </trkpt>
      <trkpt lat="48.21034" lon="5.95327">
        <ele>364.6</ele>
        <time>2024-02-19T07:45:23Z</time>
      </trkpt>
      <trkpt lat="48.21014" lon="5.95328">
        <ele>362.3</ele>
        <time>2024-02-19T07:45:30Z</time>
      </trkpt>
      <trkpt lat="48.20994" lon="5.9533">
        <ele>360.2</ele>
        <time>2024-02-19T07:45:35Z</time>
      </trkpt>
      <trkpt lat="48.20975" lon="5.95334">
        <ele>358.3</ele>
        <time>2024-02-19T07:45:41Z</time>
      </trkpt>
      <trkpt lat="48.20954" lon="5.95338">
        <ele>356.5</ele>
        <time>2024-02-19T07:45:48Z</time>
      </trkpt>
      <trkpt lat="48.20936" lon="5.95342">
        <ele>354.9</ele>
        <time>2024-02-19T07:45:54Z</time>
      </trkpt>
      <trkpt lat="48.20918" lon="5.95345">
        <ele>353.1</ele>
        <time>2024-02-19T07:46:00Z</time>
      </trkpt>
      <trkpt lat="48.209" lon="5.95349">
        <ele>351.5</ele>
        <time>2024-02-19T07:46:05Z</time>
      </trkpt>
      <trkpt lat="48.20881" lon="5.95354">
        <ele>350.2</ele>
        <time>2024-02-19T07:46:10Z</time>
      </trkpt>
      <trkpt lat="48.2086" lon="5.95353">
        <ele>349.3</ele>
        <time>2024-02-19T07:46:16Z</time>
      </trkpt>
      <trkpt lat="48.20841" lon="5.95349">
        <ele>348.7</ele>
        <time>2024-02-19T07:46:22Z</time>
      </trkpt>
      <trkpt lat="48.20823" lon="5.95346">
        <ele>348.3</ele>
        <time>2024-02-19T07:46:28Z</time>
      </trkpt>
      <trkpt lat="48.20804" lon="5.95334">
        <ele>348</ele>
        <time>2024-02-19T07:46:35Z</time>
      </trkpt>
      <trkpt lat="48.20787" lon="5.9532">
        <ele>347.8</ele>
        <time>2024-02-19T07:46:42Z</time>
      </trkpt>
      <trkpt lat="48.20771" lon="5.95308">
        <ele>347.6</ele>
        <time>2024-02-19T07:46:48Z</time>
      </trkpt>
      <trkpt lat="48.20753" lon="5.95297">
        <ele>347.6</ele>
        <time>2024-02-19T07:46:54Z</time>
      </trkpt>
      <trkpt lat="48.20735" lon="5.95292">
        <ele>348.1</ele>
        <time>2024-02-19T07:47:00Z</time>
      </trkpt>
      <trkpt lat="48.20715" lon="5.95296">
        <ele>348.6</ele>
        <time>2024-02-19T07:47:07Z</time>
      </trkpt>
      <trkpt lat="48.20696" lon="5.95309">
        <ele>348.5</ele>
        <time>2024-02-19T07:47:14Z</time>
      </trkpt>
      <trkpt lat="48.20678" lon="5.95316">
        <ele>347.9</ele>
        <time>2024-02-19T07:47:20Z</time>
      </trkpt>
      <trkpt lat="48.20661" lon="5.95308">
        <ele>347.5</ele>
        <time>2024-02-19T07:47:26Z</time>
      </trkpt>
      <trkpt lat="48.20653" lon="5.95284">
        <ele>349.1</ele>
        <time>2024-02-19T07:47:32Z</time>
      </trkpt>
      <trkpt lat="48.20658" lon="5.95254">
        <ele>350.4</ele>
        <time>2024-02-19T07:47:39Z</time>
      </trkpt>
      <trkpt lat="48.20661" lon="5.95227">
        <ele>351.3</ele>
        <time>2024-02-19T07:47:45Z</time>
      </trkpt>
      <trkpt lat="48.20663" lon="5.95199">
        <ele>351.9</ele>
        <time>2024-02-19T07:47:51Z</time>
      </trkpt>
      <trkpt lat="48.20663" lon="5.95172">
        <ele>352.2</ele>
        <time>2024-02-19T07:47:57Z</time>
      </trkpt>
      <trkpt lat="48.20661" lon="5.95141">
        <ele>352.2</ele>
        <time>2024-02-19T07:48:04Z</time>
      </trkpt>
      <trkpt lat="48.20657" lon="5.95114">
        <ele>351.9</ele>
        <time>2024-02-19T07:48:10Z</time>
      </trkpt>
      <trkpt lat="48.20653" lon="5.95084">
        <ele>351.7</ele>
        <time>2024-02-19T07:48:17Z</time>
      </trkpt>
      <trkpt lat="48.20651" lon="5.95054">
        <ele>351.4</ele>
        <time>2024-02-19T07:48:24Z</time>
      </trkpt>
      <trkpt lat="48.20645" lon="5.95027">
        <ele>350.9</ele>
        <time>2024-02-19T07:48:30Z</time>
      </trkpt>
      <trkpt lat="48.20638" lon="5.95002">
        <ele>350.5</ele>
        <time>2024-02-19T07:48:36Z</time>
      </trkpt>
      <trkpt lat="48.20629" lon="5.94974">
        <ele>349.8</ele>
        <time>2024-02-19T07:48:43Z</time>
      </trkpt>
      <trkpt lat="48.20622" lon="5.94948">
        <ele>348.9</ele>
        <time>2024-02-19T07:48:49Z</time>
      </trkpt>
      <trkpt lat="48.20616" lon="5.9492">
        <ele>348.1</ele>
        <time>2024-02-19T07:48:55Z</time>
      </trkpt>
      <trkpt lat="48.2061" lon="5.94893">
        <ele>347.2</ele>
        <time>2024-02-19T07:49:01Z</time>
      </trkpt>
      <trkpt lat="48.20604" lon="5.94867">
        <ele>346.3</ele>
        <time>2024-02-19T07:49:07Z</time>
      </trkpt>
      <trkpt lat="48.20597" lon="5.94842">
        <ele>345.5</ele>
        <time>2024-02-19T07:49:13Z</time>
      </trkpt>
      <trkpt lat="48.20589" lon="5.94816">
        <ele>344.5</ele>
        <time>2024-02-19T07:49:19Z</time>
      </trkpt>
      <trkpt lat="48.20583" lon="5.94789">
        <ele>343.3</ele>
        <time>2024-02-19T07:49:25Z</time>
      </trkpt>
      <trkpt lat="48.20576" lon="5.94763">
        <ele>342.2</ele>
        <time>2024-02-19T07:49:31Z</time>
      </trkpt>
      <trkpt lat="48.2057" lon="5.94736">
        <ele>341.1</ele>
        <time>2024-02-19T07:49:37Z</time>
      </trkpt>
      <trkpt lat="48.20563" lon="5.94708">
        <ele>339.9</ele>
        <time>2024-02-19T07:49:44Z</time>
      </trkpt>
      <trkpt lat="48.20558" lon="5.94678">
        <ele>338.7</ele>
        <time>2024-02-19T07:49:51Z</time>
      </trkpt>
      <trkpt lat="48.20563" lon="5.94652">
        <ele>337.7</ele>
        <time>2024-02-19T07:49:57Z</time>
      </trkpt>
      <trkpt lat="48.20573" lon="5.94625">
        <ele>336.7</ele>
        <time>2024-02-19T07:50:02Z</time>
      </trkpt>
      <trkpt lat="48.20583" lon="5.946">
        <ele>335.8</ele>
        <time>2024-02-19T07:50:08Z</time>
      </trkpt>
      <trkpt lat="48.20588" lon="5.94573">
        <ele>335.7</ele>
        <time>2024-02-19T07:50:16Z</time>
      </trkpt>
      <trkpt lat="48.2058" lon="5.94546">
        <ele>335.5</ele>
        <time>2024-02-19T07:50:22Z</time>
      </trkpt>
      <trkpt lat="48.20567" lon="5.94523">
        <ele>335.4</ele>
        <time>2024-02-19T07:50:29Z</time>
      </trkpt>
      <trkpt lat="48.20552" lon="5.94503">
        <ele>335.4</ele>
        <time>2024-02-19T07:50:36Z</time>
      </trkpt>
      <trkpt lat="48.20538" lon="5.94482">
        <ele>335.4</ele>
        <time>2024-02-19T07:50:44Z</time>
      </trkpt>
      <trkpt lat="48.20528" lon="5.94458">
        <ele>335.5</ele>
        <time>2024-02-19T07:50:53Z</time>
      </trkpt>
      <trkpt lat="48.20521" lon="5.94432">
        <ele>335.5</ele>
        <time>2024-02-19T07:51:01Z</time>
      </trkpt>
      <trkpt lat="48.20513" lon="5.94408">
        <ele>336.5</ele>
        <time>2024-02-19T07:51:07Z</time>
      </trkpt>
      <trkpt lat="48.205" lon="5.94387">
        <ele>339</ele>
        <time>2024-02-19T07:51:14Z</time>
      </trkpt>
      <trkpt lat="48.20487" lon="5.94367">
        <ele>340.6</ele>
        <time>2024-02-19T07:51:21Z</time>
      </trkpt>
      <trkpt lat="48.20473" lon="5.94347">
        <ele>339.5</ele>
        <time>2024-02-19T07:51:27Z</time>
      </trkpt>
      <trkpt lat="48.20467" lon="5.9432">
        <ele>337.2</ele>
        <time>2024-02-19T07:51:33Z</time>
      </trkpt>
      <trkpt lat="48.20475" lon="5.94292">
        <ele>337.3</ele>
        <time>2024-02-19T07:51:40Z</time>
      </trkpt>
      <trkpt lat="48.2049" lon="5.94274">
        <ele>337.6</ele>
        <time>2024-02-19T07:51:46Z</time>
      </trkpt>
      <trkpt lat="48.20501" lon="5.9425">
        <ele>337.8</ele>
        <time>2024-02-19T07:51:53Z</time>
      </trkpt>
      <trkpt lat="48.205" lon="5.9424">
        <ele>338</ele>
        <time>2024-02-19T07:51:56Z</time>
      </trkpt>
      <trkpt lat="48.20484" lon="5.94224">
        <ele>338.1</ele>
        <time>2024-02-19T07:52:03Z</time>
      </trkpt>
      <trkpt lat="48.20468" lon="5.94209">
        <ele>338.2</ele>
        <time>2024-02-19T07:52:11Z</time>
      </trkpt>
      <trkpt lat="48.20461" lon="5.94207">
        <ele>338.2</ele>
        <time>2024-02-19T07:52:16Z</time>
      </trkpt>
      <trkpt lat="48.20446" lon="5.94223">
        <ele>337.9</ele>
        <time>2024-02-19T07:52:26Z</time>
      </trkpt>
      <trkpt lat="48.20429" lon="5.94235">
        <ele>337.7</ele>
        <time>2024-02-19T07:52:34Z</time>
      </trkpt>
      <trkpt lat="48.20412" lon="5.94243">
        <ele>337.6</ele>
        <time>2024-02-19T07:52:41Z</time>
      </trkpt>
      <trkpt lat="48.204" lon="5.94266">
        <ele>337.7</ele>
        <time>2024-02-19T07:52:52Z</time>
      </trkpt>
      <trkpt lat="48.20382" lon="5.94279">
        <ele>338</ele>
        <time>2024-02-19T07:53:00Z</time>
      </trkpt>
      <trkpt lat="48.20366" lon="5.94289">
        <ele>338.3</ele>
        <time>2024-02-19T07:53:07Z</time>
      </trkpt>
      <trkpt lat="48.20348" lon="5.94302">
        <ele>338.9</ele>
        <time>2024-02-19T07:53:15Z</time>
      </trkpt>
      <trkpt lat="48.20329" lon="5.94316">
        <ele>339.6</ele>
        <time>2024-02-19T07:53:22Z</time>
      </trkpt>
      <trkpt lat="48.2031" lon="5.94327">
        <ele>340.2</ele>
        <time>2024-02-19T07:53:30Z</time>
      </trkpt>
      <trkpt lat="48.20292" lon="5.94332">
        <ele>340.5</ele>
        <time>2024-02-19T07:53:38Z</time>
      </trkpt>
      <trkpt lat="48.20275" lon="5.94342">
        <ele>341</ele>
        <time>2024-02-19T07:53:45Z</time>
      </trkpt>
      <trkpt lat="48.20262" lon="5.94361">
        <ele>341.2</ele>
        <time>2024-02-19T07:53:52Z</time>
      </trkpt>
      <trkpt lat="48.20245" lon="5.94371">
        <ele>342</ele>
        <time>2024-02-19T07:53:59Z</time>
      </trkpt>
      <trkpt lat="48.20229" lon="5.94388">
        <ele>342.1</ele>
        <time>2024-02-19T07:54:06Z</time>
      </trkpt>
      <trkpt lat="48.20218" lon="5.94414">
        <ele>342.2</ele>
        <time>2024-02-19T07:54:13Z</time>
      </trkpt>
      <trkpt lat="48.20207" lon="5.94436">
        <ele>342.1</ele>
        <time>2024-02-19T07:54:19Z</time>
      </trkpt>
      <trkpt lat="48.20193" lon="5.94451">
        <ele>342.1</ele>
        <time>2024-02-19T07:54:27Z</time>
      </trkpt>
      <trkpt lat="48.20176" lon="5.94444">
        <ele>342.4</ele>
        <time>2024-02-19T07:54:35Z</time>
      </trkpt>
      <trkpt lat="48.20165" lon="5.94441">
        <ele>342.6</ele>
        <time>2024-02-19T07:54:40Z</time>
      </trkpt>
    </trkseg>
  </trk>
</gpx>